createdAt,value
2022-08-07T00:02:40.016Z,101030.94
2022-08-07T00:05:23.614Z,101026.09
2022-08-07T00:07:59.977Z,101031.09
2022-08-07T00:10:48.007Z,101040.47
2022-08-07T00:13:34.877Z,101042.75
2022-08-07T00:16:17.383Z,101045.06
2022-08-07T00:18:55.769Z,101043.47
2022-08-07T00:21:57.335Z,101045.69
2022-08-07T00:24:24.567Z,101046.91
2022-08-07T00:27:06.548Z,101055.19
2022-08-07T00:29:41.530Z,101053.66
2022-08-07T00:32:15.876Z,101056.53
2022-08-07T00:34:50.689Z,101055.91
2022-08-07T00:37:25.232Z,101056.09
2022-08-07T00:40:05.118Z,101055.41
2022-08-07T00:42:45.326Z,101052.03
2022-08-07T00:45:24.155Z,101046.91
2022-08-07T00:48:08.692Z,101050.75
2022-08-07T00:50:51.034Z,101048.31
2022-08-07T00:53:39.416Z,101050.41
2022-08-07T00:56:30.155Z,101050.66
2022-08-07T00:59:05.944Z,101050.97
2022-08-07T01:01:44.166Z,101058.41
2022-08-07T01:04:24.905Z,101064.84
2022-08-07T01:06:59.093Z,101065.03
2022-08-07T01:09:51.139Z,101070.50
2022-08-07T01:12:31.635Z,101064.25
2022-08-07T01:15:17.686Z,101063.28
2022-08-07T01:17:51.785Z,101068.59
2022-08-07T01:20:32.395Z,101062.59
2022-08-07T01:23:12.231Z,101063.78
2022-08-07T01:25:55.671Z,101070.75
2022-08-07T01:28:31.034Z,101066.81
2022-08-07T01:31:07.347Z,101071.19
2022-08-07T01:33:55.383Z,101062.16
2022-08-07T01:36:40.357Z,101063.00
2022-08-07T01:39:25.265Z,101055.19
2022-08-07T01:42:38.077Z,101063.53
2022-08-07T01:45:18.266Z,101068.25
2022-08-07T01:48:20.386Z,101072.94
2022-08-07T01:50:58.926Z,101074.22
2022-08-07T01:54:12.063Z,101068.41
2022-08-07T01:56:35.656Z,101068.81
2022-08-07T01:59:18.952Z,101062.91
2022-08-07T02:02:04.090Z,101060.56
2022-08-07T02:04:56.335Z,101062.72
2022-08-07T02:07:50.023Z,101055.84
2022-08-07T02:10:31.910Z,101055.31
2022-08-07T02:13:08.940Z,101057.47
2022-08-07T02:15:55.279Z,101053.31
2022-08-07T02:18:31.261Z,101053.66
2022-08-07T02:21:08.797Z,101051.19
2022-08-07T02:23:51.149Z,101047.97
2022-08-07T02:26:26.808Z,101048.22
2022-08-07T02:29:13.722Z,101043.88
2022-08-07T02:31:50.163Z,101047.66
2022-08-07T02:34:28.146Z,101049.66
2022-08-07T02:37:08.831Z,101046.25
2022-08-07T02:40:02.538Z,101052.66
2022-08-07T02:42:44.295Z,101052.81
2022-08-07T02:45:58.361Z,101057.50
2022-08-07T02:48:15.608Z,101055.88
2022-08-07T02:50:55.742Z,101054.19
2022-08-07T02:53:38.951Z,101064.25
2022-08-07T02:56:21.712Z,101065.19
2022-08-07T02:58:57.268Z,101063.59
2022-08-07T03:01:40.072Z,101065.56
2022-08-07T03:04:22.490Z,101066.69
2022-08-07T03:06:58.310Z,101068.66
2022-08-07T03:09:41.870Z,101074.09
2022-08-07T03:12:22.670Z,101071.66
2022-08-07T03:15:12.097Z,101079.88
2022-08-07T03:17:53.335Z,101071.06
2022-08-07T03:20:29.408Z,101069.50
2022-08-07T03:23:04.587Z,101067.81
2022-08-07T03:25:59.828Z,101073.34
2022-08-07T03:28:39.720Z,101077.94
2022-08-07T03:31:24.846Z,101073.59
2022-08-07T03:34:07.506Z,101073.81
2022-08-07T03:36:42.382Z,101072.16
2022-08-07T03:39:58.969Z,101075.00
2022-08-07T03:42:15.660Z,101073.31
2022-08-07T03:44:53.426Z,101082.34
2022-08-07T03:47:48.007Z,101079.50
2022-08-07T03:50:28.705Z,101082.19
2022-08-07T03:53:05.271Z,101086.69
2022-08-07T03:55:58.254Z,101086.59
2022-08-07T03:59:08.705Z,101093.66
2022-08-07T04:01:36.931Z,101096.19
2022-08-07T04:04:11.480Z,101092.38
2022-08-07T04:06:53.513Z,101095.81
2022-08-07T04:09:44.594Z,101102.84
2022-08-07T04:12:26.776Z,101096.47
2022-08-07T04:15:04.971Z,101106.91
2022-08-07T04:18:11.253Z,101107.53
2022-08-07T04:20:38.538Z,101105.44
2022-08-07T04:23:43.410Z,101113.13
2022-08-07T04:26:25.094Z,101110.13
2022-08-07T04:29:03.349Z,101111.53
2022-08-07T04:32:03.000Z,101106.78
2022-08-07T04:34:33.939Z,101110.91
2022-08-07T04:37:15.276Z,101108.66
2022-08-07T04:39:56.790Z,101114.44
2022-08-07T04:42:34.669Z,101117.66
2022-08-07T04:45:13.850Z,101116.25
2022-08-07T04:48:06.146Z,101121.84
2022-08-07T04:50:52.848Z,101123.06
2022-08-07T04:54:00.933Z,101125.09
2022-08-07T04:58:23.549Z,101122.75
2022-08-07T05:00:12.780Z,101126.81
2022-08-07T05:02:42.824Z,101131.94
2022-08-07T05:05:52.101Z,101135.09
2022-08-07T05:09:00.097Z,101130.91
2022-08-07T05:11:26.175Z,101139.97
2022-08-07T05:14:53.263Z,101134.91
2022-08-07T05:17:05.972Z,101135.06
2022-08-07T05:19:53.009Z,101139.75
2022-08-07T05:22:28.204Z,101142.69
2022-08-07T05:25:08.625Z,101141.94
2022-08-07T05:28:02.769Z,101141.91
2022-08-07T05:30:44.718Z,101143.72
2022-08-07T05:33:23.109Z,101147.38
2022-08-07T05:35:58.292Z,101151.94
2022-08-07T05:38:58.424Z,101143.94
2022-08-07T05:42:02.473Z,101144.72
2022-08-07T05:44:31.100Z,101151.84
2022-08-07T05:47:18.137Z,101144.84
2022-08-07T05:49:57.273Z,101146.16
2022-08-07T05:52:34.228Z,101149.44
2022-08-07T05:55:11.340Z,101145.47
2022-08-07T05:57:50.732Z,101144.78
2022-08-07T06:00:25.966Z,101143.41
2022-08-07T06:03:10.708Z,101138.25
2022-08-07T06:05:49.137Z,101145.47
2022-08-07T06:08:31.557Z,101142.59
2022-08-07T06:11:06.506Z,101140.88
2022-08-07T06:14:13.139Z,101141.03
2022-08-07T06:16:40.024Z,101144.75
2022-08-07T06:19:17.942Z,101141.22
2022-08-07T06:22:15.515Z,101141.88
2022-08-07T06:25:01.508Z,101144.88
2022-08-07T06:28:00.702Z,101147.81
2022-08-07T06:30:35.789Z,101144.03
2022-08-07T06:33:16.930Z,101137.75
2022-08-07T06:36:13.351Z,101139.44
2022-08-07T06:38:59.122Z,101141.78
2022-08-07T06:42:02.477Z,101142.25
2022-08-07T06:45:15.469Z,101147.94
2022-08-07T06:47:59.848Z,101146.91
2022-08-07T06:50:47.584Z,101154.75
2022-08-07T06:54:11.630Z,101151.00
2022-08-07T06:56:49.813Z,101154.38
2022-08-07T07:00:13.789Z,101157.28
2022-08-07T07:02:54.426Z,101158.56
2022-08-07T07:06:03.615Z,101157.09
2022-08-07T07:08:25.688Z,101158.44
2022-08-07T07:11:02.792Z,101155.09
2022-08-07T07:13:58.075Z,101164.38
2022-08-07T07:16:49.508Z,101158.94
2022-08-07T07:19:56.920Z,101155.31
2022-08-07T07:22:36.771Z,101153.88
2022-08-07T07:26:34.831Z,101150.34
2022-08-07T07:28:42.656Z,101153.63
2022-08-07T07:31:21.574Z,101157.06
2022-08-07T07:34:00.467Z,101156.97
2022-08-07T07:36:36.054Z,101152.56
2022-08-07T07:39:17.639Z,101155.13
2022-08-07T07:42:08.789Z,101152.94
2022-08-07T07:44:49.553Z,101154.81
2022-08-07T07:47:26.215Z,101152.69
2022-08-07T07:50:36.254Z,101160.91
2022-08-07T07:52:58.464Z,101150.22
2022-08-07T07:55:37.820Z,101152.09
2022-08-07T07:58:21.226Z,101148.34
2022-08-07T08:00:59.089Z,101142.16
2022-08-07T08:04:11.053Z,101141.69
2022-08-07T08:06:31.851Z,101140.25
2022-08-07T08:09:09.731Z,101140.59
2022-08-07T08:12:02.577Z,101142.50
2022-08-07T08:14:38.605Z,101142.66
2022-08-07T08:17:57.846Z,101136.97
2022-08-07T08:20:16.944Z,101149.88
2022-08-07T08:23:15.079Z,101151.16
2022-08-07T08:26:08.119Z,101146.19
2022-08-07T08:28:45.602Z,101141.63
2022-08-07T08:31:30.221Z,101133.09
2022-08-07T08:34:27.210Z,101138.03
2022-08-07T08:37:09.975Z,101145.84
2022-08-07T08:40:01.162Z,101143.94
2022-08-07T08:42:44.915Z,101140.75
2022-08-07T08:45:26.689Z,101139.81
2022-08-07T08:48:28.362Z,101134.59
2022-08-07T08:51:29.559Z,101136.72
2022-08-07T08:54:26.546Z,101135.56
2022-08-07T08:57:05.263Z,101135.44
2022-08-07T08:59:50.315Z,101135.03
2022-08-07T09:02:36.616Z,101139.41
2022-08-07T09:05:36.773Z,101147.91
2022-08-07T09:08:28.779Z,101136.06
2022-08-07T09:11:13.849Z,101138.69
2022-08-07T09:14:09.586Z,101149.19
2022-08-07T09:17:03.684Z,101142.66
2022-08-07T09:19:57.740Z,101145.72
2022-08-07T09:24:31.521Z,101144.13
2022-08-07T09:26:10.192Z,101140.84
2022-08-07T09:30:05.008Z,101128.50
2022-08-07T09:31:53.364Z,101127.38
2022-08-07T09:34:39.329Z,101124.47
2022-08-07T09:37:48.594Z,101132.81
2022-08-07T09:40:35.203Z,101120.94
2022-08-07T09:43:24.494Z,101124.81
2022-08-07T09:47:50.042Z,101113.72
2022-08-07T09:50:01.875Z,101117.78
2022-08-07T09:52:41.109Z,101114.75
2022-08-07T09:55:29.766Z,101110.66
2022-08-07T09:58:38.664Z,101115.41
2022-08-07T10:01:53.044Z,101109.81
2022-08-07T10:04:53.207Z,101109.53
2022-08-07T10:07:53.576Z,101102.00
2022-08-07T10:14:02.324Z,101100.84
2022-08-07T10:16:49.575Z,101097.81
2022-08-07T10:19:48.556Z,101098.16
2022-08-07T10:22:38.713Z,101110.56
2022-08-07T10:25:33.049Z,101096.69
2022-08-07T10:28:49.502Z,101099.25
2022-08-07T10:31:49.803Z,101101.16
2022-08-07T10:34:45.844Z,101091.88
2022-08-07T10:38:00.341Z,101077.78
2022-08-07T10:40:38.911Z,101076.47
2022-08-07T10:43:29.744Z,101072.88
2022-08-07T10:46:16.979Z,101072.31
2022-08-07T10:49:10.402Z,101073.50
2022-08-07T10:52:12.671Z,101071.13
2022-08-07T10:55:01.630Z,101062.78
2022-08-07T10:57:59.001Z,101061.25
2022-08-07T11:00:56.247Z,101062.75
2022-08-07T11:03:52.714Z,101059.09
2022-08-07T11:06:42.071Z,101074.03
2022-08-07T11:10:09.433Z,101059.56
2022-08-07T11:12:31.446Z,101060.63
2022-08-07T11:15:17.294Z,101048.72
2022-08-07T11:18:03.456Z,101046.22
2022-08-07T11:20:48.534Z,101042.91
2022-08-07T11:23:38.700Z,101045.88
2022-08-07T11:26:27.059Z,101043.63
2022-08-07T11:29:13.145Z,101039.50
2022-08-07T11:32:07.247Z,101042.81
2022-08-07T11:34:47.835Z,101051.19
2022-08-07T11:37:38.693Z,101045.47
2022-08-07T11:40:41.063Z,101041.47
2022-08-07T11:43:41.759Z,101035.66
2022-08-07T11:46:36.728Z,101035.97
2022-08-07T11:49:50.457Z,101033.19
2022-08-07T11:52:35.697Z,101030.09
2022-08-07T11:56:09.494Z,101022.47
2022-08-07T11:58:33.421Z,101033.28
2022-08-07T12:01:22.882Z,101033.03
2022-08-07T12:04:17.472Z,101025.75
2022-08-07T12:07:00.729Z,101026.06
2022-08-07T12:09:50.185Z,101017.28
2022-08-07T12:12:29.143Z,101009.13
2022-08-07T12:15:17.248Z,101015.16
2022-08-07T12:18:11.826Z,101015.03
2022-08-07T12:20:54.031Z,101008.53
2022-08-07T12:24:05.369Z,101005.81
2022-08-07T12:26:46.915Z,101006.25
2022-08-07T12:29:38.203Z,101013.56
2022-08-07T12:32:20.834Z,101009.53
2022-08-07T12:34:56.527Z,101007.84
2022-08-07T12:38:09.542Z,101008.13
2022-08-07T12:40:47.297Z,101003.94
2022-08-07T12:44:01.563Z,100998.03
2022-08-07T12:46:32.691Z,101004.38
2022-08-07T12:49:40.149Z,101004.25
2022-08-07T12:52:17.998Z,100993.19
2022-08-07T12:55:03.728Z,100987.09
2022-08-07T12:58:01.141Z,100983.97
2022-08-07T13:00:50.054Z,100987.41
2022-08-07T13:04:03.149Z,100993.97
2022-08-07T13:06:54.401Z,100991.06
2022-08-07T13:10:29.202Z,100982.88
2022-08-07T13:13:05.120Z,100980.72
2022-08-07T13:15:48.833Z,100976.56
2022-08-07T13:18:38.149Z,100971.41
2022-08-07T13:21:37.279Z,100977.94
2022-08-07T13:24:21.109Z,100973.06
2022-08-07T13:27:08.517Z,100979.38
2022-08-07T13:29:50.972Z,100969.59
2022-08-07T13:32:37.628Z,100968.34
2022-08-07T13:35:24.904Z,100963.72
2022-08-07T13:38:23.590Z,100966.75
2022-08-07T13:41:06.246Z,100963.31
2022-08-07T13:43:44.987Z,100958.28
2022-08-07T13:46:33.839Z,100956.13
2022-08-07T13:50:32.601Z,100954.25
2022-08-07T13:52:30.749Z,100948.66
2022-08-07T13:55:08.359Z,100949.66
2022-08-07T13:58:01.871Z,100950.97
2022-08-07T14:00:50.621Z,100943.63
2022-08-07T14:04:09.575Z,100945.22
2022-08-07T14:06:35.060Z,100936.56
2022-08-07T14:09:16.888Z,100943.22
2022-08-07T14:12:10.414Z,100942.34
2022-08-07T14:14:52.805Z,100932.72
2022-08-07T14:18:12.900Z,100947.78
2022-08-07T14:20:41.017Z,100934.53
2022-08-07T14:23:58.965Z,100929.78
2022-08-07T14:26:28.106Z,100926.34
2022-08-07T14:30:05.354Z,100927.06
2022-08-07T14:32:08.084Z,100921.59
2022-08-07T14:34:45.975Z,100912.84
2022-08-07T14:37:36.458Z,100903.81
2022-08-07T14:40:26.064Z,100907.53
2022-08-07T14:43:58.429Z,100910.41
2022-08-07T14:46:00.713Z,100902.38
2022-08-07T14:48:42.946Z,100897.06
2022-08-07T14:51:23.794Z,100902.94
2022-08-07T14:56:55.845Z,100905.84
2022-08-07T15:00:03.641Z,100896.66
2022-08-07T15:02:34.278Z,100895.22
2022-08-07T15:05:20.363Z,100898.09
2022-08-07T15:07:57.064Z,100896.50
2022-08-07T15:10:32.971Z,100899.94
2022-08-07T15:13:13.763Z,100902.22
2022-08-07T15:18:48.065Z,100884.69
2022-08-07T15:21:58.595Z,100885.06
2022-08-07T15:27:23.817Z,100877.25
2022-08-07T15:30:16.163Z,100871.66
2022-08-07T15:33:03.967Z,100875.56
2022-08-07T15:36:04.777Z,100872.09
2022-08-07T15:38:51.399Z,100878.06
2022-08-07T15:42:45.203Z,100879.78
2022-08-07T15:44:30.182Z,100871.25
2022-08-07T15:47:16.723Z,100868.63
2022-08-07T15:50:03.841Z,100868.56
2022-08-07T15:52:41.786Z,100869.56
2022-08-07T15:55:53.574Z,100862.66
2022-08-07T15:58:25.820Z,100866.41
2022-08-07T16:01:14.044Z,100858.50
2022-08-07T16:03:58.267Z,100857.16
2022-08-07T16:06:35.252Z,100858.81
2022-08-07T16:09:22.588Z,100871.09
2022-08-07T16:12:12.250Z,100855.69
2022-08-07T16:14:59.467Z,100855.75
2022-08-07T16:18:01.600Z,100861.00
2022-08-07T16:20:56.840Z,100857.69
2022-08-07T16:24:00.528Z,100852.63
2022-08-07T16:26:59.568Z,100857.47
2022-08-07T16:30:17.735Z,100851.16
2022-08-07T16:32:54.482Z,100846.22
2022-08-07T16:35:51.779Z,100849.13
2022-08-07T16:39:02.278Z,100856.50
2022-08-07T16:42:04.725Z,100855.78
2022-08-07T16:45:15.105Z,100856.03
2022-08-07T16:48:27.728Z,100851.34
2022-08-07T16:52:01.318Z,100856.91
2022-08-07T16:54:32.968Z,100867.03
2022-08-07T16:58:01.070Z,100862.84
2022-08-07T17:00:34.999Z,100863.97
2022-08-07T17:03:58.233Z,100865.09
2022-08-07T17:06:44.572Z,100864.34
2022-08-07T17:10:06.684Z,100859.75
2022-08-07T17:12:44.251Z,100860.25
2022-08-07T17:15:43.558Z,100866.72
2022-08-07T17:18:38.138Z,100864.13
2022-08-07T17:21:18.470Z,100872.44
2022-08-07T17:24:09.420Z,100865.63
2022-08-07T17:26:56.946Z,100877.88
2022-08-07T17:30:14.100Z,100882.19
2022-08-07T17:33:39.200Z,100880.56
2022-08-07T17:36:20.716Z,100886.13
2022-08-07T17:39:01.891Z,100884.28
2022-08-07T17:42:03.445Z,100886.38
2022-08-07T17:44:50.148Z,100884.91
2022-08-07T17:47:42.776Z,100886.88
2022-08-07T17:50:19.987Z,100891.84
2022-08-07T17:53:00.503Z,100890.34
2022-08-07T17:55:59.968Z,100887.03
2022-08-07T17:58:46.288Z,100891.97
2022-08-07T18:01:24.923Z,100887.03
2022-08-07T18:04:24.573Z,100881.13
2022-08-07T18:07:20.841Z,100886.91
2022-08-07T18:10:29.203Z,100879.25
2022-08-07T18:13:15.359Z,100878.78
2022-08-07T18:16:00.127Z,100885.63
2022-08-07T18:21:01.433Z,100883.53
2022-08-07T18:21:58.372Z,100884.91
2022-08-07T18:24:37.197Z,100881.94
2022-08-07T18:27:39.199Z,100882.28
2022-08-07T18:30:32.438Z,100883.13
2022-08-07T18:33:54.771Z,100887.94
2022-08-07T18:36:40.531Z,100896.88
2022-08-07T18:40:08.523Z,100888.38
2022-08-07T18:42:37.975Z,100898.06
2022-08-07T18:45:43.375Z,100901.34
2022-08-07T18:50:05.866Z,100900.22
2022-08-07T18:52:33.459Z,100906.19
2022-08-07T18:54:30.922Z,100903.09
2022-08-07T18:57:30.963Z,100901.91
2022-08-07T19:00:33.046Z,100904.44
2022-08-07T19:03:15.730Z,100905.00
2022-08-07T19:06:04.162Z,100911.03
2022-08-07T19:12:03.965Z,100915.59
2022-08-07T19:14:51.045Z,100908.03
2022-08-07T19:17:59.311Z,100910.22
2022-08-07T19:21:09.871Z,100908.16
2022-08-07T19:23:58.611Z,100906.03
2022-08-07T19:27:08.856Z,100913.56
2022-08-07T19:31:03.013Z,100913.88
2022-08-07T19:32:36.803Z,100919.66
2022-08-07T19:35:22.463Z,100918.22
2022-08-07T19:37:59.671Z,100913.03
2022-08-07T19:40:49.711Z,100916.06
2022-08-07T19:43:43.693Z,100912.81
2022-08-07T19:46:28.972Z,100912.19
2022-08-07T19:49:09.444Z,100917.03
2022-08-07T19:51:51.722Z,100919.09
2022-08-07T19:54:34.050Z,100921.25
2022-08-07T19:58:01.223Z,100922.53
2022-08-07T20:00:28.975Z,100935.50
2022-08-07T20:03:34.029Z,100934.97
2022-08-07T20:06:06.057Z,100932.56
2022-08-07T20:08:48.896Z,100935.50
2022-08-07T20:12:01.040Z,100939.50
2022-08-07T20:14:31.303Z,100932.44
2022-08-07T20:17:07.446Z,100930.81
2022-08-07T20:19:47.940Z,100926.41
2022-08-07T20:22:41.446Z,100925.59
2022-08-07T20:25:20.411Z,100926.81
2022-08-07T20:27:58.409Z,100929.72
2022-08-07T20:30:34.169Z,100932.63
2022-08-07T20:33:36.897Z,100931.84
2022-08-07T20:36:10.101Z,100932.13
2022-08-07T20:38:59.645Z,100935.91
2022-08-07T20:41:38.460Z,100939.59
2022-08-07T20:44:15.555Z,100932.66
2022-08-07T20:47:05.645Z,100929.28
2022-08-07T20:49:59.586Z,100935.66
2022-08-07T20:52:50.415Z,100936.59
2022-08-07T20:55:27.741Z,100937.69
2022-08-07T20:58:19.180Z,100940.50
2022-08-07T21:01:08.119Z,100946.75
2022-08-07T21:04:19.798Z,100937.25
2022-08-07T21:06:59.331Z,100939.25
2022-08-07T21:09:52.864Z,100936.97
2022-08-07T21:12:38.929Z,100927.63
2022-08-07T21:15:18.722Z,100915.53
2022-08-07T21:18:20.847Z,100928.44
2022-08-07T21:20:56.120Z,100932.50
2022-08-07T21:23:50.645Z,100935.78
2022-08-07T21:26:34.734Z,100940.81
2022-08-07T21:29:30.418Z,100937.75
2022-08-07T21:32:46.822Z,100933.88
2022-08-07T21:36:00.149Z,100934.22
2022-08-07T21:38:27.464Z,100929.34
2022-08-07T21:41:10.796Z,100931.44
2022-08-07T21:43:55.947Z,100937.91
2022-08-07T21:46:42.408Z,100935.09
2022-08-07T21:49:26.812Z,100931.53
2022-08-07T21:52:11.968Z,100931.44
2022-08-07T21:55:02.918Z,100932.13
2022-08-07T21:57:52.061Z,100937.53
2022-08-07T22:00:27.058Z,100935.97
2022-08-07T22:03:16.449Z,100936.81
2022-08-07T22:05:57.359Z,100933.56
2022-08-07T22:08:43.777Z,100939.03
2022-08-07T22:11:22.580Z,100935.00
2022-08-07T22:14:14.988Z,100943.38
2022-08-07T22:17:01.535Z,100939.19
2022-08-07T22:19:59.663Z,100946.53
2022-08-07T22:22:44.704Z,100940.56
2022-08-07T22:25:26.657Z,100933.69
2022-08-07T22:28:29.850Z,100941.28
2022-08-07T22:31:06.908Z,100944.34
2022-08-07T22:33:56.635Z,100938.28
2022-08-07T22:36:41.413Z,100946.63
2022-08-07T22:39:35.221Z,100952.19
2022-08-07T22:42:33.316Z,100944.38
2022-08-07T22:45:21.763Z,100944.66
2022-08-07T22:48:31.519Z,100943.22
2022-08-07T22:51:19.549Z,100939.91
2022-08-07T22:54:09.542Z,100940.06
2022-08-07T22:57:02.548Z,100935.94
2022-08-07T22:59:51.293Z,100949.44
2022-08-07T23:02:43.202Z,100946.94
2022-08-07T23:06:08.351Z,100955.09
2022-08-07T23:08:51.525Z,100951.03
2022-08-07T23:11:46.060Z,100951.22
2022-08-07T23:14:37.125Z,100952.41
2022-08-07T23:17:26.391Z,100947.13
2022-08-07T23:20:40.522Z,100950.66
2022-08-07T23:24:06.427Z,100947.38
2022-08-07T23:26:54.903Z,100947.56
2022-08-07T23:30:38.155Z,100954.78
2022-08-07T23:34:35.634Z,100953.09
2022-08-07T23:36:29.248Z,100956.06
2022-08-07T23:39:14.250Z,100956.31
2022-08-07T23:42:21.530Z,100958.16
2022-08-07T23:45:43.535Z,100956.31
2022-08-07T23:48:50.572Z,100959.38
2022-08-07T23:52:59.570Z,100958.66
2022-08-07T23:54:44.566Z,100955.09
2022-08-07T23:57:29.447Z,100955.97
